createdAt,value
2023-04-07T00:00:49.894Z,433.00
2023-04-07T00:01:49.950Z,400.00
2023-04-07T00:02:50.015Z,400.00
2023-04-07T00:03:50.090Z,400.00
2023-04-07T00:04:49.990Z,407.00
2023-04-07T00:05:49.973Z,427.00
2023-04-07T00:06:50.015Z,453.00
2023-04-07T00:07:56.598Z,478.00
2023-04-07T00:08:50.637Z,479.00
2023-04-07T00:09:50.050Z,462.00
2023-04-07T00:10:50.074Z,437.00
2023-04-07T00:11:50.069Z,421.00
2023-04-07T00:12:50.092Z,406.00
2023-04-07T00:13:50.104Z,400.00
2023-04-07T00:14:50.124Z,439.00
2023-04-07T00:15:50.172Z,488.00
2023-04-07T00:16:50.163Z,500.00
2023-04-07T00:17:50.187Z,500.00
2023-04-07T00:18:50.200Z,501.00
2023-04-07T00:19:50.222Z,500.00
2023-04-07T00:20:50.220Z,501.00
2023-04-07T00:21:50.242Z,502.00
2023-04-07T00:22:50.272Z,503.00
2023-04-07T00:23:50.277Z,501.00
2023-04-07T00:24:50.296Z,510.00
2023-04-07T00:25:50.299Z,502.00
2023-04-07T00:26:50.332Z,501.00
2023-04-07T00:27:50.326Z,500.00
2023-04-07T00:28:50.348Z,502.00
2023-04-07T00:29:50.364Z,501.00
2023-04-07T00:30:50.421Z,505.00
2023-04-07T00:31:50.398Z,500.00
2023-04-07T00:32:50.494Z,500.00
2023-04-07T00:33:50.422Z,501.00
2023-04-07T00:34:50.445Z,501.00
2023-04-07T00:35:50.481Z,506.00
2023-04-07T00:36:50.468Z,501.00
2023-04-07T00:37:50.477Z,503.00
2023-04-07T00:38:50.500Z,504.00
2023-04-07T00:39:50.509Z,504.00
2023-04-07T00:40:50.525Z,502.00
2023-04-07T00:41:50.615Z,500.00
2023-04-07T00:42:50.570Z,503.00
2023-04-07T00:43:50.618Z,504.00
2023-04-07T00:44:50.583Z,505.00
2023-04-07T00:45:50.616Z,502.00
2023-04-07T00:46:50.633Z,501.00
2023-04-07T00:47:50.666Z,500.00
2023-04-07T00:48:50.613Z,500.00
2023-04-07T00:49:50.637Z,505.00
2023-04-07T00:50:50.639Z,503.00
2023-04-07T00:51:50.638Z,504.00
2023-04-07T00:52:50.649Z,507.00
2023-04-07T00:53:50.676Z,500.00
2023-04-07T00:54:50.655Z,501.00
2023-04-07T00:55:50.669Z,502.00
2023-04-07T00:56:50.677Z,506.00
2023-04-07T00:57:50.692Z,503.00
2023-04-07T00:58:50.744Z,509.00
2023-04-07T00:59:50.728Z,500.00
2023-04-07T01:00:50.746Z,501.00
2023-04-07T01:01:50.797Z,503.00
2023-04-07T01:02:50.970Z,500.00
2023-04-07T01:03:50.861Z,504.00
2023-04-07T01:04:50.882Z,505.00
2023-04-07T01:05:50.798Z,504.00
2023-04-07T01:06:50.815Z,504.00
2023-04-07T01:07:50.818Z,504.00
2023-04-07T01:08:50.825Z,501.00
2023-04-07T01:09:50.834Z,502.00
2023-04-07T01:10:50.850Z,504.00
2023-04-07T01:11:50.868Z,506.00
2023-04-07T01:12:50.874Z,505.00
2023-04-07T01:13:50.895Z,506.00
2023-04-07T01:14:50.926Z,502.00
2023-04-07T01:15:50.950Z,500.00
2023-04-07T01:16:52.494Z,508.00
2023-04-07T01:17:50.952Z,514.00
2023-04-07T01:18:50.971Z,504.00
2023-04-07T01:19:50.958Z,503.00
2023-04-07T01:20:50.975Z,504.00
2023-04-07T01:21:50.986Z,503.00
2023-04-07T01:22:51.008Z,507.00
2023-04-07T01:23:51.013Z,504.00
2023-04-07T01:24:51.028Z,505.00
2023-04-07T01:25:51.045Z,504.00
2023-04-07T01:26:51.057Z,506.00
2023-04-07T01:27:51.063Z,505.00
2023-04-07T01:28:51.086Z,500.00
2023-04-07T01:29:51.085Z,506.00
2023-04-07T01:30:51.117Z,506.00
2023-04-07T01:31:51.236Z,508.00
2023-04-07T01:32:51.168Z,512.00
2023-04-07T01:33:51.138Z,503.00
2023-04-07T01:34:51.129Z,507.00
2023-04-07T01:35:51.143Z,503.00
2023-04-07T01:36:51.197Z,506.00
2023-04-07T01:37:51.176Z,502.00
2023-04-07T01:38:51.189Z,505.00
2023-04-07T01:39:51.210Z,503.00
2023-04-07T01:40:51.229Z,503.00
2023-04-07T01:41:51.233Z,502.00
2023-04-07T01:42:51.257Z,506.00
2023-04-07T01:43:51.286Z,505.00
2023-04-07T01:44:51.270Z,503.00
2023-04-07T01:45:51.281Z,505.00
2023-04-07T01:46:51.454Z,507.00
2023-04-07T01:47:51.340Z,504.00
2023-04-07T01:48:51.328Z,500.00
2023-04-07T01:49:51.346Z,507.00
2023-04-07T01:50:51.372Z,503.00
2023-04-07T01:51:51.369Z,505.00
2023-04-07T01:52:51.422Z,501.00
2023-04-07T01:53:51.405Z,506.00
2023-04-07T01:54:51.412Z,504.00
2023-04-07T01:55:51.419Z,507.00
2023-04-07T01:56:51.431Z,510.00
2023-04-07T01:57:51.451Z,505.00
2023-04-07T01:58:51.456Z,501.00
2023-04-07T01:59:51.469Z,506.00
2023-04-07T02:00:51.503Z,508.00
2023-04-07T02:01:51.628Z,506.00
2023-04-07T02:02:51.698Z,503.00
2023-04-07T02:03:51.664Z,507.00
2023-04-07T02:04:50.528Z,508.00
2023-04-07T02:05:51.549Z,507.00
2023-04-07T02:06:51.566Z,509.00
2023-04-07T02:07:51.578Z,506.00
2023-04-07T02:08:51.593Z,502.00
2023-04-07T02:09:51.610Z,505.00
2023-04-07T02:10:51.646Z,506.00
2023-04-07T02:11:51.644Z,507.00
2023-04-07T02:12:51.659Z,505.00
2023-04-07T02:13:51.714Z,504.00
2023-04-07T02:14:51.693Z,505.00
2023-04-07T02:15:51.712Z,505.00
2023-04-07T02:16:51.726Z,509.00
2023-04-07T02:17:51.752Z,501.00
2023-04-07T02:18:51.828Z,503.00
2023-04-07T02:19:51.755Z,503.00
2023-04-07T02:20:51.769Z,506.00
2023-04-07T02:21:51.792Z,505.00
2023-04-07T02:22:51.818Z,501.00
2023-04-07T02:23:51.834Z,511.00
2023-04-07T02:24:51.850Z,506.00
2023-04-07T02:25:51.878Z,507.00
2023-04-07T02:26:51.906Z,504.00
2023-04-07T02:27:51.937Z,508.00
2023-04-07T02:28:51.961Z,503.00
2023-04-07T02:29:51.979Z,503.00
2023-04-07T02:30:52.011Z,505.00
2023-04-07T02:31:52.108Z,504.00
2023-04-07T02:32:52.066Z,506.00
2023-04-07T02:33:52.134Z,502.00
2023-04-07T02:34:52.138Z,506.00
2023-04-07T02:35:52.137Z,506.00
2023-04-07T02:36:52.175Z,503.00
2023-04-07T02:37:52.192Z,502.00
2023-04-07T02:38:52.198Z,503.00
2023-04-07T02:39:52.235Z,502.00
2023-04-07T02:40:52.261Z,503.00
2023-04-07T02:41:52.284Z,502.00
2023-04-07T02:42:52.311Z,503.00
2023-04-07T02:43:52.521Z,501.00
2023-04-07T02:44:52.359Z,503.00
2023-04-07T02:45:52.402Z,506.00
2023-04-07T02:46:52.402Z,501.00
2023-04-07T02:47:52.460Z,510.00
2023-04-07T02:48:52.480Z,506.00
2023-04-07T02:49:52.495Z,504.00
2023-04-07T02:50:52.546Z,507.00
2023-04-07T02:51:52.541Z,507.00
2023-04-07T02:52:52.566Z,505.00
2023-04-07T02:53:52.913Z,500.00
2023-04-07T02:54:52.629Z,504.00
2023-04-07T02:55:52.656Z,507.00
2023-04-07T02:56:52.691Z,505.00
2023-04-07T02:57:52.737Z,504.00
2023-04-07T02:58:52.743Z,506.00
2023-04-07T02:59:52.767Z,509.00
2023-04-07T03:00:52.897Z,508.00
2023-04-07T03:01:52.885Z,505.00
2023-04-07T03:02:52.991Z,504.00
2023-04-07T03:03:53.287Z,506.00
2023-04-07T03:04:52.893Z,507.00
2023-04-07T03:05:52.915Z,504.00
2023-04-07T03:06:52.955Z,507.00
2023-04-07T03:07:52.962Z,505.00
2023-04-07T03:08:52.987Z,506.00
2023-04-07T03:09:53.013Z,503.00
2023-04-07T03:10:53.054Z,501.00
2023-04-07T03:11:53.067Z,507.00
2023-04-07T03:12:53.100Z,506.00
2023-04-07T03:13:53.451Z,507.00
2023-04-07T03:14:53.157Z,503.00
2023-04-07T03:15:53.189Z,503.00
2023-04-07T03:16:53.260Z,504.00
2023-04-07T03:17:53.287Z,506.00
2023-04-07T03:18:53.272Z,506.00
2023-04-07T03:19:53.303Z,507.00
2023-04-07T03:20:53.313Z,504.00
2023-04-07T03:21:53.351Z,505.00
2023-04-07T03:22:53.396Z,506.00
2023-04-07T03:23:53.631Z,503.00
2023-04-07T03:24:53.436Z,509.00
2023-04-07T03:25:53.488Z,502.00
2023-04-07T03:26:53.498Z,506.00
2023-04-07T03:27:53.519Z,509.00
2023-04-07T03:28:53.542Z,505.00
2023-04-07T03:29:53.583Z,509.00
2023-04-07T03:30:53.654Z,506.00
2023-04-07T03:31:53.660Z,503.00
2023-04-07T03:32:53.730Z,506.00
2023-04-07T03:33:53.921Z,506.00
2023-04-07T03:34:53.737Z,510.00
2023-04-07T03:35:53.787Z,507.00
2023-04-07T03:36:53.795Z,505.00
2023-04-07T03:37:53.828Z,507.00
2023-04-07T03:38:53.861Z,505.00
2023-04-07T03:39:53.860Z,506.00
2023-04-07T03:40:53.903Z,507.00
2023-04-07T03:41:53.921Z,507.00
2023-04-07T03:42:53.945Z,506.00
2023-04-07T03:43:54.191Z,508.00
2023-04-07T03:44:54.008Z,507.00
2023-04-07T03:45:54.062Z,504.00
2023-04-07T03:46:54.059Z,508.00
2023-04-07T03:47:54.282Z,504.00
2023-04-07T03:48:54.112Z,507.00
2023-04-07T03:49:54.137Z,511.00
2023-04-07T03:50:54.161Z,503.00
2023-04-07T03:51:54.207Z,509.00
2023-04-07T03:52:54.714Z,504.00
2023-04-07T03:53:54.472Z,509.00
2023-04-07T03:54:54.297Z,504.00
2023-04-07T03:55:54.303Z,506.00
2023-04-07T03:56:54.339Z,504.00
2023-04-07T03:57:54.363Z,504.00
2023-04-07T03:58:54.397Z,504.00
2023-04-07T03:59:54.433Z,502.00
2023-04-07T04:00:54.469Z,506.00
2023-04-07T04:01:54.561Z,505.00
2023-04-07T04:02:54.600Z,504.00
2023-04-07T04:03:54.951Z,503.00
2023-04-07T04:04:54.661Z,506.00
2023-04-07T04:05:54.609Z,504.00
2023-04-07T04:06:54.628Z,503.00
2023-04-07T04:07:54.659Z,506.00
2023-04-07T04:08:54.682Z,507.00
2023-04-07T04:09:54.716Z,509.00
2023-04-07T04:10:54.771Z,503.00
2023-04-07T04:11:54.773Z,510.00
2023-04-07T04:12:54.789Z,508.00
2023-04-07T04:13:55.151Z,503.00
2023-04-07T04:14:54.855Z,508.00
2023-04-07T04:15:54.942Z,504.00
2023-04-07T04:16:54.948Z,503.00
2023-04-07T04:17:55.050Z,511.00
2023-04-07T04:18:54.984Z,504.00
2023-04-07T04:19:55.016Z,506.00
2023-04-07T04:20:55.039Z,506.00
2023-04-07T04:21:55.071Z,505.00
2023-04-07T04:22:55.114Z,502.00
2023-04-07T04:23:55.202Z,504.00
2023-04-07T04:24:55.170Z,510.00
2023-04-07T04:25:55.175Z,504.00
2023-04-07T04:26:55.225Z,500.00
2023-04-07T04:27:55.246Z,507.00
2023-04-07T04:28:55.276Z,508.00
2023-04-07T04:29:55.295Z,505.00
2023-04-07T04:30:55.359Z,503.00
2023-04-07T04:31:55.376Z,510.00
2023-04-07T04:32:55.456Z,510.00
2023-04-07T04:33:55.549Z,505.00
2023-04-07T04:34:55.471Z,505.00
2023-04-07T04:35:55.516Z,507.00
2023-04-07T04:36:55.583Z,507.00
2023-04-07T04:37:55.579Z,506.00
2023-04-07T04:38:55.604Z,506.00
2023-04-07T04:39:55.635Z,506.00
2023-04-07T04:40:55.675Z,504.00
2023-04-07T04:41:55.685Z,504.00
2023-04-07T04:42:55.737Z,504.00
2023-04-07T04:43:55.750Z,504.00
2023-04-07T04:44:55.767Z,511.00
2023-04-07T04:45:55.796Z,505.00
2023-04-07T04:46:55.978Z,506.00
2023-04-07T04:47:55.890Z,507.00
2023-04-07T04:48:55.888Z,502.00
2023-04-07T04:49:55.914Z,508.00
2023-04-07T04:50:55.951Z,505.00
2023-04-07T04:51:55.978Z,507.00
2023-04-07T04:52:56.005Z,506.00
2023-04-07T04:53:56.037Z,506.00
2023-04-07T04:54:56.075Z,504.00
2023-04-07T04:55:56.106Z,504.00
2023-04-07T04:56:56.137Z,504.00
2023-04-07T04:57:56.169Z,503.00
2023-04-07T04:58:56.231Z,504.00
2023-04-07T04:59:56.238Z,505.00
2023-04-07T05:00:56.309Z,505.00
2023-04-07T05:01:56.360Z,509.00
2023-04-07T05:02:56.519Z,512.00
2023-04-07T05:03:56.656Z,505.00
2023-04-07T05:04:56.594Z,507.00
2023-04-07T05:05:56.439Z,509.00
2023-04-07T05:06:56.468Z,503.00
2023-04-07T05:07:56.498Z,501.00
2023-04-07T05:08:56.529Z,502.00
2023-04-07T05:09:56.562Z,508.00
2023-04-07T05:10:56.594Z,508.00
2023-04-07T05:11:56.621Z,504.00
2023-04-07T05:12:56.644Z,510.00
2023-04-07T05:13:56.679Z,506.00
2023-04-07T05:14:56.749Z,509.00
2023-04-07T05:15:56.773Z,507.00
2023-04-07T05:16:56.771Z,506.00
2023-04-07T05:17:56.896Z,509.00
2023-04-07T05:18:56.837Z,505.00
2023-04-07T05:19:56.873Z,506.00
2023-04-07T05:20:56.914Z,503.00
2023-04-07T05:21:56.949Z,506.00
2023-04-07T05:22:56.985Z,509.00
2023-04-07T05:23:57.021Z,504.00
2023-04-07T05:24:57.047Z,509.00
2023-04-07T05:25:57.096Z,504.00
2023-04-07T05:26:57.145Z,505.00
2023-04-07T05:27:57.156Z,502.00
2023-04-07T05:28:57.192Z,506.00
2023-04-07T05:29:57.236Z,505.00
2023-04-07T05:30:57.310Z,504.00
2023-04-07T05:31:57.317Z,506.00
2023-04-07T05:32:57.376Z,507.00
2023-04-07T05:33:57.353Z,509.00
2023-04-07T05:34:57.386Z,507.00
2023-04-07T05:35:57.475Z,510.00
2023-04-07T05:36:57.455Z,507.00
2023-04-07T05:37:57.497Z,510.00
2023-04-07T05:38:57.519Z,503.00
2023-04-07T05:39:57.578Z,507.00
2023-04-07T05:40:57.617Z,501.00
2023-04-07T05:41:58.569Z,511.00
2023-04-07T05:42:57.646Z,511.00
2023-04-07T05:43:57.673Z,506.00
2023-04-07T05:44:57.727Z,509.00
2023-04-07T05:45:57.860Z,509.00
2023-04-07T05:46:57.801Z,504.00
2023-04-07T05:47:57.843Z,505.00
2023-04-07T05:48:59.184Z,507.00
2023-04-07T05:49:57.843Z,508.00
2023-04-07T05:50:58.726Z,509.00
2023-04-07T05:51:57.897Z,512.00
2023-04-07T05:52:57.912Z,511.00
2023-04-07T05:53:57.922Z,511.00
2023-04-07T05:54:57.948Z,514.00
2023-04-07T05:55:57.979Z,511.00
2023-04-07T05:56:57.998Z,507.00
2023-04-07T05:57:58.037Z,509.00
2023-04-07T05:58:58.052Z,507.00
2023-04-07T05:59:58.076Z,509.00
2023-04-07T06:00:58.101Z,510.00
2023-04-07T06:01:58.175Z,510.00
2023-04-07T06:02:58.313Z,508.00
2023-04-07T06:03:58.186Z,504.00
2023-04-07T06:04:58.210Z,507.00
2023-04-07T06:05:58.216Z,505.00
2023-04-07T06:06:58.232Z,507.00
2023-04-07T06:07:58.257Z,508.00
2023-04-07T06:08:58.273Z,504.00
2023-04-07T06:09:58.307Z,511.00
2023-04-07T06:10:58.331Z,509.00
2023-04-07T06:11:58.345Z,507.00
2023-04-07T06:12:58.365Z,503.00
2023-04-07T06:13:58.387Z,505.00
2023-04-07T06:14:58.415Z,505.00
2023-04-07T06:15:58.429Z,504.00
2023-04-07T06:16:58.505Z,508.00
2023-04-07T06:17:58.529Z,503.00
2023-04-07T06:18:58.527Z,504.00
2023-04-07T06:19:58.515Z,505.00
2023-04-07T06:20:58.542Z,508.00
2023-04-07T06:21:58.567Z,506.00
2023-04-07T06:22:58.589Z,507.00
2023-04-07T06:23:58.607Z,506.00
2023-04-07T06:24:58.619Z,506.00
2023-04-07T06:25:58.718Z,507.00
2023-04-07T06:26:58.686Z,505.00
2023-04-07T06:27:58.693Z,508.00
2023-04-07T06:28:58.710Z,508.00
2023-04-07T06:29:58.741Z,505.00
2023-04-07T06:30:59.631Z,511.00
2023-04-07T06:31:58.763Z,507.00
2023-04-07T06:32:58.866Z,508.00
2023-04-07T06:33:58.811Z,508.00
2023-04-07T06:34:58.860Z,502.00
2023-04-07T06:35:58.871Z,503.00
2023-04-07T06:36:59.442Z,505.00
2023-04-07T06:37:58.907Z,507.00
2023-04-07T06:38:58.956Z,506.00
2023-04-07T06:39:58.942Z,505.00
2023-04-07T06:40:58.974Z,509.00
2023-04-07T06:41:58.993Z,502.00
2023-04-07T06:42:59.032Z,507.00
2023-04-07T06:43:59.045Z,508.00
2023-04-07T06:44:59.073Z,508.00
2023-04-07T06:45:59.108Z,503.00
2023-04-07T06:46:59.374Z,509.00
2023-04-07T06:47:59.205Z,504.00
2023-04-07T06:48:59.168Z,505.00
2023-04-07T06:49:59.190Z,505.00
2023-04-07T06:50:59.251Z,507.00
2023-04-07T06:51:59.256Z,505.00
2023-04-07T06:52:59.293Z,504.00
2023-04-07T06:53:59.333Z,504.00
2023-04-07T06:54:59.347Z,508.00
2023-04-07T06:55:59.381Z,510.00
2023-04-07T06:56:59.420Z,509.00
2023-04-07T06:57:59.448Z,505.00
2023-04-07T06:58:59.476Z,509.00
2023-04-07T06:59:59.512Z,505.00
2023-04-07T07:00:59.554Z,506.00
2023-04-07T07:01:59.712Z,505.00
2023-04-07T07:02:59.890Z,506.00
2023-04-07T07:03:59.766Z,505.00
2023-04-07T07:04:59.671Z,509.00
2023-04-07T07:05:59.716Z,508.00
2023-04-07T07:06:59.751Z,508.00
2023-04-07T07:07:59.751Z,508.00
2023-04-07T07:08:59.796Z,509.00
2023-04-07T07:09:59.822Z,505.00
2023-04-07T07:10:59.850Z,511.00
2023-04-07T07:11:59.878Z,511.00
2023-04-07T07:12:59.906Z,510.00
2023-04-07T07:13:59.937Z,508.00
2023-04-07T07:14:59.963Z,509.00
2023-04-07T07:16:00.079Z,505.00
2023-04-07T07:17:00.022Z,503.00
2023-04-07T07:18:00.082Z,508.00
2023-04-07T07:19:00.111Z,501.00
2023-04-07T07:20:00.141Z,507.00
2023-04-07T07:21:00.174Z,506.00
2023-04-07T07:22:00.179Z,509.00
2023-04-07T07:23:00.223Z,508.00
2023-04-07T07:24:00.247Z,503.00
2023-04-07T07:25:00.272Z,507.00
2023-04-07T07:26:00.308Z,508.00
2023-04-07T07:27:00.356Z,502.00
2023-04-07T07:28:00.408Z,507.00
2023-04-07T07:29:00.424Z,506.00
2023-04-07T07:30:00.459Z,503.00
2023-04-07T07:31:00.517Z,509.00
2023-04-07T07:32:00.528Z,505.00
2023-04-07T07:33:00.579Z,508.00
2023-04-07T07:34:00.592Z,506.00
2023-04-07T07:35:00.632Z,502.00
2023-04-07T07:36:00.669Z,504.00
2023-04-07T07:37:00.698Z,508.00
2023-04-07T07:38:00.716Z,503.00
2023-04-07T07:39:00.802Z,505.00
2023-04-07T07:40:00.782Z,502.00
2023-04-07T07:41:00.814Z,506.00
2023-04-07T07:42:00.855Z,503.00
2023-04-07T07:43:00.885Z,506.00
2023-04-07T07:44:00.920Z,502.00
2023-04-07T07:45:00.961Z,506.00
2023-04-07T07:46:01.036Z,504.00
2023-04-07T07:47:00.983Z,503.00
2023-04-07T07:48:01.144Z,504.00
2023-04-07T07:49:01.051Z,508.00
2023-04-07T07:50:01.135Z,500.00
2023-04-07T07:51:01.102Z,503.00
2023-04-07T07:52:01.130Z,503.00
2023-04-07T07:53:01.154Z,503.00
2023-04-07T07:54:01.195Z,506.00
2023-04-07T07:55:01.257Z,504.00
2023-04-07T07:56:01.243Z,502.00
2023-04-07T07:57:01.258Z,507.00
2023-04-07T07:58:01.286Z,509.00
2023-04-07T07:59:01.312Z,505.00
2023-04-07T08:00:01.357Z,502.00
2023-04-07T08:01:01.380Z,506.00
2023-04-07T08:02:01.452Z,507.00
2023-04-07T08:03:01.495Z,501.00
2023-04-07T08:04:01.570Z,505.00
2023-04-07T08:05:01.520Z,506.00
2023-04-07T08:06:01.496Z,509.00
2023-04-07T08:07:01.513Z,502.00
2023-04-07T08:08:01.525Z,502.00
2023-04-07T08:09:01.570Z,500.00
2023-04-07T08:10:01.586Z,505.00
2023-04-07T08:11:01.652Z,506.00
2023-04-07T08:12:01.632Z,503.00
2023-04-07T08:13:01.666Z,506.00
2023-04-07T08:14:01.684Z,505.00
2023-04-07T08:15:01.732Z,504.00
2023-04-07T08:16:01.790Z,508.00
2023-04-07T08:17:01.763Z,508.00
2023-04-07T08:18:01.814Z,508.00
2023-04-07T08:19:01.800Z,505.00
2023-04-07T08:20:01.831Z,506.00
2023-04-07T08:21:01.860Z,501.00
2023-04-07T08:22:01.876Z,506.00
2023-04-07T08:23:01.928Z,503.00
2023-04-07T08:24:01.916Z,504.00
2023-04-07T08:25:01.959Z,503.00
2023-04-07T08:26:01.961Z,504.00
2023-04-07T08:27:02.004Z,503.00
2023-04-07T08:28:02.007Z,502.00
2023-04-07T08:29:02.021Z,507.00
2023-04-07T08:30:02.094Z,504.00
2023-04-07T08:31:02.108Z,501.00
2023-04-07T08:32:02.147Z,505.00
2023-04-07T08:33:02.158Z,503.00
2023-04-07T08:34:02.137Z,509.00
2023-04-07T08:35:02.176Z,503.00
2023-04-07T08:36:02.260Z,506.00
2023-04-07T08:37:02.220Z,504.00
2023-04-07T08:38:02.238Z,505.00
2023-04-07T08:39:02.264Z,502.00
2023-04-07T08:40:02.363Z,505.00
2023-04-07T08:41:01.298Z,504.00
2023-04-07T08:42:02.317Z,507.00
2023-04-07T08:43:02.358Z,506.00
2023-04-07T08:44:02.357Z,507.00
2023-04-07T08:45:02.395Z,503.00
2023-04-07T08:46:02.409Z,506.00
2023-04-07T08:47:02.477Z,506.00
2023-04-07T08:48:02.463Z,504.00
2023-04-07T08:49:02.464Z,504.00
2023-04-07T08:50:02.463Z,508.00
2023-04-07T08:51:02.484Z,508.00
2023-04-07T08:52:05.099Z,503.00
2023-04-07T08:53:02.515Z,503.00
2023-04-07T08:54:02.536Z,505.00
2023-04-07T08:55:02.541Z,504.00
2023-04-07T08:56:02.557Z,505.00
2023-04-07T08:57:02.573Z,504.00
2023-04-07T08:58:02.582Z,506.00
2023-04-07T08:59:02.627Z,509.00
2023-04-07T09:00:02.609Z,506.00
2023-04-07T09:01:02.632Z,508.00
2023-04-07T09:02:02.698Z,509.00
2023-04-07T09:03:02.754Z,503.00
2023-04-07T09:04:02.806Z,504.00
2023-04-07T09:05:02.661Z,513.00
2023-04-07T09:06:02.720Z,507.00
2023-04-07T09:07:02.697Z,507.00
2023-04-07T09:08:02.707Z,509.00
2023-04-07T09:09:02.713Z,507.00
2023-04-07T09:10:02.733Z,504.00
2023-04-07T09:11:02.743Z,514.00
2023-04-07T09:12:02.751Z,508.00
2023-04-07T09:13:02.754Z,506.00
2023-04-07T09:14:02.755Z,507.00
2023-04-07T09:15:02.805Z,511.00
2023-04-07T09:16:02.888Z,510.00
2023-04-07T09:17:02.787Z,510.00
2023-04-07T09:18:02.867Z,511.00
2023-04-07T09:19:02.805Z,511.00
2023-04-07T09:20:02.808Z,509.00
2023-04-07T09:21:02.824Z,511.00
2023-04-07T09:22:02.833Z,512.00
2023-04-07T09:23:02.840Z,511.00
2023-04-07T09:24:02.849Z,511.00
2023-04-07T09:25:02.898Z,514.00
2023-04-07T09:26:02.887Z,512.00
2023-04-07T09:27:02.862Z,514.00
2023-04-07T09:28:02.894Z,513.00
2023-04-07T09:29:02.881Z,511.00
2023-04-07T09:30:02.886Z,514.00
2023-04-07T09:31:02.921Z,514.00
2023-04-07T09:32:02.905Z,515.00
2023-04-07T09:33:03.018Z,512.00
2023-04-07T09:34:02.903Z,516.00
2023-04-07T09:35:02.912Z,514.00
2023-04-07T09:36:03.004Z,518.00
2023-04-07T09:37:03.097Z,514.00
2023-04-07T09:38:03.125Z,519.00
2023-04-07T09:39:03.194Z,518.00
2023-04-07T09:40:03.257Z,518.00
2023-04-07T09:41:03.331Z,520.00
2023-04-07T09:42:03.391Z,520.00
2023-04-07T09:43:03.472Z,519.00
2023-04-07T09:44:03.529Z,518.00
2023-04-07T09:45:03.580Z,522.00
2023-04-07T09:46:03.714Z,519.00
2023-04-07T09:47:03.728Z,521.00
2023-04-07T09:48:03.767Z,520.00
2023-04-07T09:49:03.831Z,522.00
2023-04-07T09:50:03.883Z,522.00
2023-04-07T09:51:03.947Z,522.00
2023-04-07T09:52:03.995Z,521.00
2023-04-07T09:53:04.058Z,522.00
2023-04-07T09:54:04.100Z,519.00
2023-04-07T09:55:04.155Z,521.00
2023-04-07T09:56:04.218Z,523.00
2023-04-07T09:57:04.260Z,522.00
2023-04-07T09:58:04.312Z,522.00
2023-04-07T09:59:04.367Z,525.00
2023-04-07T10:00:04.402Z,523.00
2023-04-07T10:01:04.518Z,526.00
2023-04-07T10:02:04.579Z,526.00
2023-04-07T10:03:04.753Z,523.00
2023-04-07T10:04:04.615Z,523.00
2023-04-07T10:05:04.652Z,523.00
2023-04-07T10:06:04.695Z,523.00
2023-04-07T10:07:04.745Z,525.00
2023-04-07T10:08:04.783Z,524.00
2023-04-07T10:09:04.834Z,524.00
2023-04-07T10:10:04.889Z,525.00
2023-04-07T10:11:04.920Z,524.00
2023-04-07T10:12:04.968Z,523.00
2023-04-07T10:13:05.009Z,522.00
2023-04-07T10:14:05.052Z,527.00
2023-04-07T10:15:05.102Z,522.00
2023-04-07T10:16:05.166Z,524.00
2023-04-07T10:17:05.274Z,524.00
2023-04-07T10:18:05.243Z,523.00
2023-04-07T10:19:05.303Z,524.00
2023-04-07T10:20:05.316Z,524.00
2023-04-07T10:21:05.354Z,524.00
2023-04-07T10:22:05.392Z,525.00
2023-04-07T10:23:05.396Z,524.00
2023-04-07T10:24:05.430Z,525.00
2023-04-07T10:25:05.475Z,523.00
2023-04-07T10:26:05.506Z,523.00
2023-04-07T10:27:05.541Z,524.00
2023-04-07T10:28:05.579Z,524.00
2023-04-07T10:29:05.612Z,525.00
2023-04-07T10:30:05.728Z,530.00
2023-04-07T10:31:05.729Z,526.00
2023-04-07T10:32:05.737Z,526.00
2023-04-07T10:33:05.799Z,528.00
2023-04-07T10:34:05.785Z,526.00
2023-04-07T10:35:05.838Z,526.00
2023-04-07T10:36:05.982Z,530.00
2023-04-07T10:37:05.864Z,526.00
2023-04-07T10:38:05.962Z,527.00
2023-04-07T10:39:05.922Z,526.00
2023-04-07T10:40:05.947Z,528.00
2023-04-07T10:41:05.978Z,528.00
2023-04-07T10:42:06.002Z,529.00
2023-04-07T10:43:06.036Z,527.00
2023-04-07T10:44:06.057Z,527.00
2023-04-07T10:45:06.068Z,527.00
2023-04-07T10:46:06.109Z,529.00
2023-04-07T10:47:06.108Z,530.00
2023-04-07T10:48:06.157Z,531.00
2023-04-07T10:49:06.155Z,530.00
2023-04-07T10:50:06.174Z,530.00
2023-04-07T10:51:06.246Z,531.00
2023-04-07T10:52:06.208Z,532.00
2023-04-07T10:53:06.221Z,530.00
2023-04-07T10:54:06.235Z,530.00
2023-04-07T10:55:06.257Z,530.00
2023-04-07T10:56:06.277Z,530.00
2023-04-07T10:57:06.296Z,532.00
2023-04-07T10:58:06.306Z,532.00
2023-04-07T10:59:06.316Z,535.00
2023-04-07T11:00:06.330Z,532.00
2023-04-07T11:01:06.404Z,532.00
2023-04-07T11:02:06.498Z,532.00
2023-04-07T11:03:06.771Z,530.00
2023-04-07T11:04:06.557Z,532.00
2023-04-07T11:05:06.515Z,531.00
2023-04-07T11:06:06.485Z,532.00
2023-04-07T11:07:06.533Z,534.00
2023-04-07T11:08:06.516Z,532.00
2023-04-07T11:09:06.533Z,532.00
2023-04-07T11:10:06.578Z,532.00
2023-04-07T11:11:06.564Z,532.00
2023-04-07T11:12:06.595Z,533.00
2023-04-07T11:13:06.600Z,534.00
2023-04-07T11:14:06.593Z,534.00
2023-04-07T11:15:06.598Z,533.00
2023-04-07T11:16:06.670Z,534.00
2023-04-07T11:17:06.618Z,533.00
2023-04-07T11:18:06.625Z,535.00
2023-04-07T11:19:06.642Z,536.00
2023-04-07T11:20:06.643Z,538.00
2023-04-07T11:21:06.657Z,536.00
2023-04-07T11:22:08.440Z,535.00
2023-04-07T11:23:06.751Z,535.00
2023-04-07T11:24:06.651Z,537.00
2023-04-07T11:25:06.676Z,538.00
2023-04-07T11:26:06.657Z,537.00
2023-04-07T11:27:06.651Z,539.00
2023-04-07T11:28:06.655Z,538.00
2023-04-07T11:29:06.653Z,539.00
2023-04-07T11:30:06.650Z,536.00
2023-04-07T11:31:06.680Z,536.00
2023-04-07T11:32:06.656Z,536.00
2023-04-07T11:33:06.704Z,537.00
2023-04-07T11:34:06.660Z,535.00
2023-04-07T11:35:06.659Z,536.00
2023-04-07T11:36:06.700Z,536.00
2023-04-07T11:37:06.663Z,535.00
2023-04-07T11:38:06.672Z,535.00
2023-04-07T11:39:06.702Z,533.00
2023-04-07T11:40:06.685Z,536.00
2023-04-07T11:41:06.692Z,534.00
2023-04-07T11:42:06.696Z,535.00
2023-04-07T11:43:06.693Z,534.00
2023-04-07T11:44:06.689Z,534.00
2023-04-07T11:45:08.308Z,533.00
2023-04-07T11:46:06.689Z,533.00
2023-04-07T11:47:06.763Z,534.00
2023-04-07T11:48:06.707Z,536.00
2023-04-07T11:49:06.701Z,535.00
2023-04-07T11:50:06.688Z,535.00
2023-04-07T11:51:06.725Z,536.00
2023-04-07T11:52:06.730Z,534.00
2023-04-07T11:53:06.706Z,533.00
2023-04-07T11:54:06.731Z,533.00
2023-04-07T11:55:06.737Z,531.00
2023-04-07T11:56:06.714Z,530.00
2023-04-07T11:57:06.709Z,531.00
2023-04-07T11:58:06.723Z,532.00
2023-04-07T11:59:06.708Z,531.00
2023-04-07T12:00:06.710Z,530.00
2023-04-07T12:01:06.717Z,531.00
2023-04-07T12:02:06.794Z,531.00
2023-04-07T12:03:06.907Z,531.00
2023-04-07T12:04:06.858Z,528.00
2023-04-07T12:05:06.873Z,530.00
2023-04-07T12:06:06.736Z,532.00
2023-04-07T12:07:06.744Z,529.00
2023-04-07T12:08:06.755Z,529.00
2023-04-07T12:09:06.764Z,529.00
2023-04-07T12:10:06.766Z,529.00
2023-04-07T12:11:06.817Z,529.00
2023-04-07T12:12:06.781Z,528.00
2023-04-07T12:13:06.786Z,529.00
2023-04-07T12:14:06.799Z,527.00
2023-04-07T12:15:06.836Z,525.00
2023-04-07T12:16:06.839Z,529.00
2023-04-07T12:17:06.836Z,527.00
2023-04-07T12:18:06.860Z,527.00
2023-04-07T12:19:06.865Z,528.00
2023-04-07T12:20:06.867Z,527.00
2023-04-07T12:21:06.879Z,529.00
2023-04-07T12:22:06.887Z,525.00
2023-04-07T12:23:06.896Z,529.00
2023-04-07T12:24:06.943Z,529.00
2023-04-07T12:25:06.919Z,525.00
2023-04-07T12:26:06.940Z,525.00
2023-04-07T12:27:06.962Z,527.00
2023-04-07T12:28:06.938Z,528.00
2023-04-07T12:29:06.956Z,525.00